M19

Newport Regional Airport

Newport, Arkansas, USA
METAR KM19 210156Z AUTO 00000KT FEW050 OVC065 25/21 A2987 RMK AO2 SLP117 T02500211 PWINO $
Observed Flight Rules
Aug-21 @ 01:56 UTC (20 minutes ago)
Clouds
  • Few at 5,000' AGL
  • Overcast at 6,500' AGL
Temperatures Readings
Current 25°C / 77°F
Dewpoint 21°C / 70°F
Humidity 79%
Altimeter 29.87" Hg
Pressure 1011.7 hPa
Elevation 73
METAR KM19 210156Z AUTO 00000KT FEW050 OVC065 25/21 A2987 RMK AO2 SLP117 T02500211 PWINO $
Observed Flight Rules
Aug-21 @ 01:56 UTC
(20 minutes ago)
Clouds
  • Few at 5,000' AGL
  • Overcast at 6,500' AGL
Temperature Dewpoint
25°C / 77°F 21°C / 70°F
Humidity Altimeter Pressure
79% 29.87" Hg 1011.7 hPa